createdAt,value
2024-04-03T00:00:05.360Z,720.00
2024-04-03T00:01:05.434Z,721.00
2024-04-03T00:02:05.488Z,725.00
2024-04-03T00:03:06.040Z,726.00
2024-04-03T00:04:05.598Z,725.00
2024-04-03T00:05:05.647Z,718.00
2024-04-03T00:06:05.677Z,722.00
2024-04-03T00:07:05.705Z,728.00
2024-04-03T00:08:05.752Z,717.00
2024-04-03T00:09:05.779Z,718.00
2024-04-03T00:10:05.831Z,715.00
2024-04-03T00:11:05.850Z,710.00
2024-04-03T00:12:05.972Z,719.00
2024-04-03T00:13:05.990Z,722.00
2024-04-03T00:14:05.997Z,718.00
2024-04-03T00:15:06.073Z,714.00
2024-04-03T00:16:06.124Z,716.00
2024-04-03T00:17:06.137Z,715.00
2024-04-03T00:18:06.227Z,711.00
2024-04-03T00:19:06.193Z,720.00
2024-04-03T00:20:06.223Z,706.00
2024-04-03T00:21:06.266Z,713.00
2024-04-03T00:22:06.277Z,720.00
2024-04-03T00:23:06.317Z,715.00
2024-04-03T00:24:06.348Z,721.00
2024-04-03T00:25:06.382Z,712.00
2024-04-03T00:26:06.434Z,712.00
2024-04-03T00:27:06.448Z,713.00
2024-04-03T00:28:06.461Z,711.00
2024-04-03T00:29:06.478Z,715.00
2024-04-03T00:30:06.523Z,717.00
2024-04-03T00:31:06.558Z,715.00
2024-04-03T00:32:06.599Z,713.00
2024-04-03T00:33:06.650Z,720.00
2024-04-03T00:34:06.680Z,717.00
2024-04-03T00:35:06.697Z,712.00
2024-04-03T00:36:06.701Z,718.00
2024-04-03T00:37:06.745Z,720.00
2024-04-03T00:38:06.782Z,719.00
2024-04-03T00:39:06.813Z,719.00
2024-04-03T00:40:06.855Z,719.00
2024-04-03T00:41:06.847Z,726.00
2024-04-03T00:42:06.895Z,721.00
2024-04-03T00:43:06.918Z,723.00
2024-04-03T00:44:06.936Z,723.00
2024-04-03T00:45:07.001Z,728.00
2024-04-03T00:46:06.997Z,725.00
2024-04-03T00:47:07.004Z,722.00
2024-04-03T00:48:07.057Z,730.00
2024-04-03T00:49:07.067Z,717.00
2024-04-03T00:50:07.131Z,716.00
2024-04-03T00:51:07.154Z,718.00
2024-04-03T00:52:07.156Z,718.00
2024-04-03T00:53:07.193Z,716.00
2024-04-03T00:54:07.240Z,720.00
2024-04-03T00:55:07.237Z,716.00
2024-04-03T00:56:07.254Z,722.00
2024-04-03T00:57:07.284Z,720.00
2024-04-03T00:58:07.334Z,712.00
2024-04-03T00:59:07.374Z,712.00
2024-04-03T01:00:07.379Z,716.00
2024-04-03T01:01:07.426Z,714.00
2024-04-03T01:02:07.463Z,722.00
2024-04-03T01:03:07.508Z,718.00
2024-04-03T01:04:07.520Z,709.00
2024-04-03T01:05:07.552Z,717.00
2024-04-03T01:06:07.567Z,722.00
2024-04-03T01:07:07.625Z,724.00
2024-04-03T01:08:07.647Z,708.00
2024-04-03T01:09:07.681Z,727.00
2024-04-03T01:10:07.717Z,719.00
2024-04-03T01:11:09.883Z,716.00
2024-04-03T01:12:07.811Z,721.00
2024-04-03T01:13:07.840Z,721.00
2024-04-03T01:14:07.915Z,713.00
2024-04-03T01:15:07.932Z,722.00
2024-04-03T01:16:07.969Z,717.00
2024-04-03T01:17:08.004Z,702.00
2024-04-03T01:18:08.089Z,713.00
2024-04-03T01:19:08.051Z,719.00
2024-04-03T01:20:08.098Z,710.00
2024-04-03T01:21:08.103Z,715.00
2024-04-03T01:22:08.160Z,707.00
2024-04-03T01:23:08.607Z,713.00
2024-04-03T01:24:08.234Z,703.00
2024-04-03T01:25:08.268Z,721.00
2024-04-03T01:26:08.313Z,703.00
2024-04-03T01:27:08.316Z,715.00
2024-04-03T01:28:08.361Z,715.00
2024-04-03T01:29:08.427Z,702.00
2024-04-03T01:30:08.434Z,704.00
2024-04-03T01:31:08.486Z,714.00
2024-04-03T01:32:08.493Z,700.00
2024-04-03T01:33:08.536Z,699.00
2024-04-03T01:34:08.604Z,695.00
2024-04-03T01:35:08.623Z,713.00
2024-04-03T01:36:08.622Z,698.00
2024-04-03T01:37:08.654Z,712.00
2024-04-03T01:38:08.675Z,700.00
2024-04-03T01:39:08.698Z,704.00
2024-04-03T01:40:08.725Z,704.00
2024-04-03T01:41:08.767Z,707.00
2024-04-03T01:42:08.791Z,704.00
2024-04-03T01:43:09.112Z,697.00
2024-04-03T01:44:08.843Z,711.00
2024-04-03T01:45:08.873Z,703.00
2024-04-03T01:46:08.892Z,710.00
2024-04-03T01:47:08.943Z,698.00
2024-04-03T01:48:08.982Z,701.00
2024-04-03T01:49:08.980Z,699.00
2024-04-03T01:50:09.039Z,702.00
2024-04-03T01:51:09.055Z,708.00
2024-04-03T01:52:09.112Z,712.00
2024-04-03T01:53:09.143Z,713.00
2024-04-03T01:54:09.146Z,728.00
2024-04-03T01:55:09.191Z,706.00
2024-04-03T01:56:09.208Z,727.00
2024-04-03T01:57:09.216Z,727.00
2024-04-03T01:58:09.319Z,732.00
2024-04-03T01:59:09.304Z,734.00
2024-04-03T02:00:09.308Z,737.00
2024-04-03T02:01:09.306Z,742.00
2024-04-03T02:02:09.360Z,738.00
2024-04-03T02:03:09.354Z,735.00
2024-04-03T02:04:09.382Z,733.00
2024-04-03T02:05:09.401Z,733.00
2024-04-03T02:06:09.446Z,725.00
2024-04-03T02:07:09.464Z,731.00
2024-04-03T02:08:09.494Z,725.00
2024-04-03T02:09:09.519Z,726.00
2024-04-03T02:10:09.558Z,729.00
2024-04-03T02:11:10.112Z,714.00
2024-04-03T02:12:09.641Z,729.00
2024-04-03T02:13:09.630Z,718.00
2024-04-03T02:14:09.657Z,716.00
2024-04-03T02:15:09.721Z,718.00
2024-04-03T02:16:09.713Z,723.00
2024-04-03T02:17:09.761Z,716.00
2024-04-03T02:18:09.763Z,717.00
2024-04-03T02:19:09.793Z,725.00
2024-04-03T02:20:09.822Z,710.00
2024-04-03T02:21:09.855Z,710.00
2024-04-03T02:22:09.915Z,711.00
2024-04-03T02:23:09.921Z,717.00
2024-04-03T02:24:19.378Z,718.00
2024-04-03T02:25:10.983Z,710.00
2024-04-03T02:26:09.968Z,712.00
2024-04-03T02:27:09.993Z,713.00
2024-04-03T02:28:09.983Z,709.00
2024-04-03T02:29:10.007Z,714.00
2024-04-03T02:30:09.990Z,722.00
2024-04-03T02:31:10.031Z,705.00
2024-04-03T02:32:10.036Z,711.00
2024-04-03T02:33:10.044Z,716.00
2024-04-03T02:34:10.050Z,717.00
2024-04-03T02:35:10.072Z,708.00
2024-04-03T02:36:10.104Z,719.00
2024-04-03T02:37:10.102Z,711.00
2024-04-03T02:38:10.117Z,717.00
2024-04-03T02:39:10.119Z,704.00
2024-04-03T02:40:10.138Z,708.00
2024-04-03T02:41:10.170Z,709.00
2024-04-03T02:42:10.138Z,707.00
2024-04-03T02:43:10.178Z,715.00
2024-04-03T02:44:10.223Z,716.00
2024-04-03T02:45:10.236Z,715.00
2024-04-03T02:46:10.274Z,723.00
2024-04-03T02:47:10.304Z,721.00
2024-04-03T02:48:10.360Z,726.00
2024-04-03T02:49:10.373Z,721.00
2024-04-03T02:50:10.522Z,724.00
2024-04-03T02:51:10.482Z,725.00
2024-04-03T02:52:10.596Z,731.00
2024-04-03T02:53:10.625Z,736.00
2024-04-03T02:54:10.602Z,735.00
2024-04-03T02:55:10.608Z,735.00
2024-04-03T02:56:10.652Z,743.00
2024-04-03T02:57:10.703Z,748.00
2024-04-03T02:58:10.741Z,747.00
2024-04-03T02:59:10.784Z,732.00
2024-04-03T03:00:10.845Z,746.00
2024-04-03T03:01:10.862Z,742.00
2024-04-03T03:02:10.950Z,740.00
2024-04-03T03:03:10.966Z,738.00
2024-04-03T03:04:11.016Z,737.00
2024-04-03T03:05:11.033Z,744.00
2024-04-03T03:06:11.087Z,750.00
2024-04-03T03:07:11.154Z,738.00
2024-04-03T03:08:11.612Z,746.00
2024-04-03T03:09:11.195Z,747.00
2024-04-03T03:10:11.230Z,750.00
2024-04-03T03:11:11.307Z,751.00
2024-04-03T03:12:11.312Z,751.00
2024-04-03T03:13:11.390Z,743.00
2024-04-03T03:14:11.387Z,756.00
2024-04-03T03:15:11.438Z,752.00
2024-04-03T03:16:11.478Z,743.00
2024-04-03T03:17:11.534Z,750.00
2024-04-03T03:18:11.640Z,745.00
2024-04-03T03:19:11.592Z,744.00
2024-04-03T03:20:11.658Z,753.00
2024-04-03T03:21:11.674Z,756.00
2024-04-03T03:22:11.709Z,751.00
2024-04-03T03:23:11.780Z,744.00
2024-04-03T03:24:11.804Z,751.00
2024-04-03T03:25:11.844Z,746.00
2024-04-03T03:26:11.886Z,747.00
2024-04-03T03:27:11.927Z,744.00
2024-04-03T03:28:11.986Z,745.00
2024-04-03T03:29:12.018Z,740.00
2024-04-03T03:30:12.079Z,749.00
2024-04-03T03:31:12.079Z,748.00
2024-04-03T03:32:12.143Z,748.00
2024-04-03T03:33:12.625Z,746.00
2024-04-03T03:34:12.208Z,748.00
2024-04-03T03:35:12.276Z,739.00
2024-04-03T03:36:12.336Z,750.00
2024-04-03T03:37:12.345Z,752.00
2024-04-03T03:38:12.649Z,749.00
2024-04-03T03:39:12.450Z,736.00
2024-04-03T03:40:12.574Z,739.00
2024-04-03T03:41:12.523Z,739.00
2024-04-03T03:42:12.576Z,743.00
2024-04-03T03:43:12.603Z,735.00
2024-04-03T03:44:12.658Z,730.00
2024-04-03T03:45:12.695Z,728.00
2024-04-03T03:46:12.739Z,729.00
2024-04-03T03:47:12.847Z,729.00
2024-04-03T03:48:12.864Z,733.00
2024-04-03T03:49:12.890Z,739.00
2024-04-03T03:50:12.945Z,737.00
2024-04-03T03:51:12.977Z,725.00
2024-04-03T03:52:13.006Z,722.00
2024-04-03T03:53:13.059Z,737.00
2024-04-03T03:54:13.107Z,744.00
2024-04-03T03:55:13.114Z,750.00
2024-04-03T03:56:13.163Z,756.00
2024-04-03T03:57:13.196Z,756.00
2024-04-03T03:58:13.244Z,767.00
2024-04-03T03:59:13.296Z,764.00
2024-04-03T04:00:13.310Z,772.00
2024-04-03T04:01:13.365Z,775.00
2024-04-03T04:02:13.385Z,772.00
2024-04-03T04:03:13.432Z,782.00
2024-04-03T04:04:13.513Z,788.00
2024-04-03T04:05:13.531Z,785.00
2024-04-03T04:06:13.554Z,787.00
2024-04-03T04:07:13.612Z,785.00
2024-04-03T04:08:14.142Z,797.00
2024-04-03T04:09:13.692Z,783.00
2024-04-03T04:10:13.716Z,808.00
2024-04-03T04:11:13.776Z,798.00
2024-04-03T04:12:13.805Z,795.00
2024-04-03T04:13:13.856Z,807.00
2024-04-03T04:14:13.888Z,808.00
2024-04-03T04:15:13.922Z,808.00
2024-04-03T04:16:13.988Z,818.00
2024-04-03T04:17:14.030Z,812.00
2024-04-03T04:18:14.177Z,816.00
2024-04-03T04:19:14.127Z,813.00
2024-04-03T04:20:14.176Z,823.00
2024-04-03T04:21:14.191Z,829.00
2024-04-03T04:22:21.388Z,600.00
2024-04-03T04:23:21.495Z,600.00
2024-04-03T04:24:21.423Z,600.00
2024-04-03T04:25:21.428Z,600.00
2024-04-03T04:26:21.405Z,600.00
2024-04-03T04:27:21.441Z,605.00
2024-04-03T04:28:21.428Z,604.00
2024-04-03T04:29:21.456Z,607.00
2024-04-03T04:30:21.452Z,606.00
2024-04-03T04:31:28.625Z,600.00
2024-04-03T04:32:28.648Z,600.00
2024-04-03T04:33:28.760Z,600.00
2024-04-03T04:34:28.621Z,600.00
2024-04-03T04:35:28.606Z,600.00
2024-04-03T04:36:28.613Z,604.00
2024-04-03T04:37:28.600Z,602.00
2024-04-03T04:38:28.575Z,603.00
2024-04-03T04:39:28.571Z,603.00
2024-04-03T04:40:28.547Z,606.00
2024-04-03T04:41:28.546Z,600.00
2024-04-03T04:42:28.540Z,602.00
2024-04-03T04:45:28.484Z,606.00
2024-04-03T04:46:28.480Z,609.00
2024-04-03T04:47:28.498Z,613.00
2024-04-03T04:48:28.448Z,619.00
2024-04-03T04:49:28.431Z,629.00
2024-04-03T04:50:28.459Z,632.00
2024-04-03T04:51:28.446Z,630.00
2024-04-03T04:52:28.403Z,629.00
2024-04-03T04:53:28.821Z,627.00
2024-04-03T04:54:28.388Z,634.00
2024-04-03T04:55:28.382Z,628.00
2024-04-03T04:56:28.391Z,628.00
2024-04-03T04:57:28.394Z,629.00
2024-04-03T04:58:28.372Z,625.00
2024-04-03T04:59:28.381Z,627.00
2024-04-03T05:00:28.378Z,607.00
2024-04-03T05:01:28.331Z,553.00
2024-04-03T05:02:28.347Z,551.00
2024-04-03T05:03:28.341Z,571.00
2024-04-03T05:04:28.330Z,600.00
2024-04-03T05:05:28.320Z,600.00
2024-04-03T05:06:28.314Z,600.00
2024-04-03T05:07:28.319Z,602.00
2024-04-03T05:08:28.320Z,610.00
2024-04-03T05:09:28.310Z,621.00
2024-04-03T05:10:28.303Z,641.00
2024-04-03T05:11:28.318Z,658.00
2024-04-03T05:12:28.340Z,668.00
2024-04-03T05:13:28.335Z,726.00
2024-04-03T05:14:28.325Z,768.00
2024-04-03T05:15:28.339Z,801.00
2024-04-03T05:16:28.334Z,818.00
2024-04-03T05:17:28.367Z,838.00
2024-04-03T05:18:28.352Z,856.00
2024-04-03T05:19:28.314Z,865.00
2024-04-03T05:20:28.344Z,877.00
2024-04-03T05:21:28.314Z,886.00
2024-04-03T05:22:28.398Z,895.00
2024-04-03T05:23:28.329Z,887.00
2024-04-03T05:24:28.303Z,910.00
2024-04-03T05:25:28.316Z,924.00
2024-04-03T05:26:28.304Z,925.00
2024-04-03T05:27:28.281Z,938.00
2024-04-03T05:28:28.298Z,947.00
2024-04-03T05:29:28.304Z,953.00
2024-04-03T05:30:29.670Z,957.00
2024-04-03T05:31:28.301Z,963.00
2024-04-03T05:32:28.382Z,971.00
2024-04-03T05:33:28.295Z,977.00
2024-04-03T05:34:28.315Z,971.00
2024-04-03T05:35:28.290Z,977.00
2024-04-03T05:36:28.279Z,987.00
2024-04-03T05:37:28.283Z,986.00
2024-04-03T05:38:28.264Z,989.00
2024-04-03T05:39:28.277Z,1006.00
2024-04-03T05:40:28.310Z,1005.00
2024-04-03T05:41:28.350Z,1008.00
2024-04-03T05:42:28.426Z,1015.00
2024-04-03T05:43:28.466Z,1024.00
2024-04-03T05:44:28.446Z,1034.00
2024-04-03T05:45:28.487Z,1038.00
2024-04-03T05:46:28.517Z,1039.00
2024-04-03T05:47:28.649Z,1051.00
2024-04-03T05:48:28.577Z,1058.00
2024-04-03T05:49:28.581Z,1031.00
2024-04-03T05:50:28.584Z,1049.00
2024-04-03T05:51:28.682Z,1048.00
2024-04-03T05:52:28.743Z,1053.00
2024-04-03T05:53:28.803Z,1073.00
2024-04-03T05:54:28.855Z,1081.00
2024-04-03T05:55:28.894Z,1097.00
2024-04-03T05:56:28.943Z,1134.00
2024-04-03T05:57:28.994Z,1147.00
2024-04-03T05:58:29.068Z,1183.00
2024-04-03T05:59:29.107Z,1205.00
2024-04-03T06:00:29.228Z,1237.00
2024-04-03T06:01:29.204Z,1263.00
2024-04-03T06:02:29.265Z,1292.00
2024-04-03T06:03:30.280Z,1312.00
2024-04-03T06:04:29.381Z,1352.00
2024-04-03T06:05:29.506Z,1371.00
2024-04-03T06:06:29.524Z,1384.00
2024-04-03T06:07:29.560Z,1397.00
2024-04-03T06:08:29.530Z,1408.00
2024-04-03T06:09:29.582Z,1427.00
2024-04-03T06:10:29.579Z,1432.00
2024-04-03T06:11:29.524Z,1447.00
2024-04-03T06:12:29.555Z,1466.00
2024-04-03T06:13:29.807Z,1470.00
2024-04-03T06:14:29.510Z,1497.00
2024-04-03T06:15:29.598Z,1509.00
2024-04-03T06:16:29.542Z,1510.00
2024-04-03T06:17:29.603Z,1531.00
2024-04-03T06:18:29.569Z,1553.00
2024-04-03T06:19:29.542Z,1560.00
2024-04-03T06:20:29.573Z,1561.00
2024-04-03T06:21:29.566Z,1566.00
2024-04-03T06:22:29.660Z,1576.00
2024-04-03T06:23:29.821Z,1572.00
2024-04-03T06:24:29.668Z,1580.00
2024-04-03T06:25:29.634Z,1584.00
2024-04-03T06:26:29.642Z,1577.00
2024-04-03T06:27:29.682Z,1584.00
2024-04-03T06:28:29.808Z,1579.00
2024-04-03T06:29:29.693Z,1588.00
2024-04-03T06:30:29.691Z,1593.00
2024-04-03T06:31:29.742Z,1594.00
2024-04-03T06:32:29.793Z,1586.00
2024-04-03T06:33:29.814Z,1597.00
2024-04-03T06:34:29.820Z,1586.00
2024-04-03T06:35:29.748Z,1584.00
2024-04-03T06:36:29.772Z,1584.00
2024-04-03T06:37:29.795Z,1592.00
2024-04-03T06:38:29.819Z,1585.00
2024-04-03T06:39:29.809Z,1586.00
2024-04-03T06:40:29.838Z,1583.00
2024-04-03T06:41:29.823Z,1589.00
2024-04-03T06:42:29.838Z,1589.00
2024-04-03T06:43:29.853Z,1580.00
2024-04-03T06:44:29.898Z,1571.00
2024-04-03T06:45:29.914Z,1577.00
2024-04-03T06:46:29.947Z,1572.00
2024-04-03T06:47:29.981Z,1572.00
2024-04-03T06:48:30.320Z,1574.00
2024-04-03T06:49:29.990Z,1568.00
2024-04-03T06:50:30.017Z,1552.00
2024-04-03T06:51:30.036Z,1550.00
2024-04-03T06:52:30.066Z,1546.00
2024-04-03T06:53:30.340Z,1537.00
2024-04-03T06:54:30.098Z,1518.00
2024-04-03T06:55:30.164Z,1502.00
2024-04-03T06:56:30.161Z,1487.00
2024-04-03T06:57:30.200Z,1479.00
2024-04-03T06:58:30.429Z,1494.00
2024-04-03T06:59:30.178Z,1497.00
2024-04-03T07:00:30.261Z,1492.00
2024-04-03T07:01:30.216Z,1493.00
2024-04-03T07:02:30.329Z,1496.00
2024-04-03T07:03:30.844Z,1518.00
2024-04-03T07:04:30.374Z,1527.00
2024-04-03T07:05:30.411Z,1542.00
2024-04-03T07:06:30.447Z,1543.00
2024-04-03T07:07:30.509Z,1552.00
2024-04-03T07:08:30.521Z,1588.00
2024-04-03T07:09:30.563Z,1580.00
2024-04-03T07:10:30.561Z,1604.00
2024-04-03T07:11:30.568Z,1603.00
2024-04-03T07:12:30.580Z,1626.00
2024-04-03T07:13:30.635Z,1633.00
2024-04-03T07:14:30.632Z,1652.00
2024-04-03T07:15:30.646Z,1658.00
2024-04-03T07:16:30.654Z,1666.00
2024-04-03T07:17:30.678Z,1684.00
2024-04-03T07:18:30.669Z,1694.00
2024-04-03T07:19:30.731Z,1718.00
2024-04-03T07:20:31.327Z,1761.00
2024-04-03T07:21:30.692Z,1795.00
2024-04-03T07:22:30.689Z,1802.00
2024-04-03T07:23:30.753Z,1826.00
2024-04-03T07:24:30.708Z,1825.00
2024-04-03T07:25:30.717Z,1846.00
2024-04-03T07:26:30.701Z,1844.00
2024-04-03T07:27:30.709Z,1869.00
2024-04-03T07:28:30.679Z,1881.00
2024-04-03T07:29:30.692Z,1885.00
2024-04-03T07:30:30.676Z,1894.00
2024-04-03T07:31:30.670Z,1898.00
2024-04-03T07:32:30.697Z,1907.00
2024-04-03T07:33:30.666Z,1911.00
2024-04-03T07:34:30.829Z,1907.00
2024-04-03T07:35:30.641Z,1924.00
2024-04-03T07:36:30.628Z,1922.00
2024-04-03T07:37:30.645Z,1929.00
2024-04-03T07:38:30.614Z,1933.00
2024-04-03T07:39:30.845Z,1939.00
2024-04-03T07:40:30.600Z,1948.00
2024-04-03T07:41:30.618Z,1950.00
2024-04-03T07:42:30.596Z,1944.00
2024-04-03T07:43:30.607Z,1938.00
2024-04-03T07:44:30.844Z,1930.00
2024-04-03T07:45:30.587Z,1940.00
2024-04-03T07:46:30.724Z,1934.00
2024-04-03T07:47:30.631Z,1937.00
2024-04-03T07:48:30.619Z,1945.00
2024-04-03T07:49:30.837Z,1951.00
2024-04-03T07:50:30.615Z,1964.00
2024-04-03T07:51:30.632Z,1979.00
2024-04-03T07:52:30.639Z,1980.00
2024-04-03T07:53:30.661Z,1992.00
2024-04-03T07:54:30.650Z,1996.00
2024-04-03T07:55:30.662Z,2004.00
2024-04-03T07:56:30.633Z,1985.00
2024-04-03T07:57:30.634Z,1995.00
2024-04-03T07:58:30.626Z,1984.00
2024-04-03T07:59:30.616Z,1973.00
2024-04-03T08:00:30.591Z,1956.00
2024-04-03T08:01:30.631Z,1952.00
2024-04-03T08:02:32.027Z,1912.00
2024-04-03T08:03:33.349Z,1920.00
2024-04-03T08:04:30.767Z,1910.00
2024-04-03T08:05:30.726Z,1897.00
2024-04-03T08:06:30.695Z,1895.00
2024-04-03T08:07:30.707Z,1887.00
2024-04-03T08:08:30.663Z,1884.00
2024-04-03T08:09:30.852Z,1866.00
2024-04-03T08:10:30.620Z,1864.00
2024-04-03T08:11:30.624Z,1850.00
2024-04-03T08:12:30.612Z,1831.00
2024-04-03T08:13:30.587Z,1815.00
2024-04-03T08:14:30.584Z,1809.00
2024-04-03T08:15:30.551Z,1797.00
2024-04-03T08:16:30.507Z,1795.00
2024-04-03T08:17:30.526Z,1791.00
2024-04-03T08:18:30.452Z,1781.00
2024-04-03T08:19:30.855Z,1772.00
2024-04-03T08:20:30.398Z,1764.00
2024-04-03T08:21:30.355Z,1760.00
2024-04-03T08:22:30.354Z,1745.00
2024-04-03T08:23:30.305Z,1740.00
2024-04-03T08:24:30.347Z,1728.00
2024-04-03T08:25:30.296Z,1713.00
2024-04-03T08:26:30.253Z,1703.00
2024-04-03T08:27:30.244Z,1697.00
2024-04-03T08:28:30.233Z,1683.00
2024-04-03T08:29:30.337Z,1677.00
2024-04-03T08:30:30.181Z,1674.00
2024-04-03T08:31:30.177Z,1656.00
2024-04-03T08:32:32.858Z,1654.00
2024-04-03T08:33:36.227Z,1650.00
2024-04-03T08:34:31.140Z,1654.00
2024-04-03T08:35:30.082Z,1641.00
2024-04-03T08:36:30.064Z,1639.00
2024-04-03T08:37:30.329Z,1621.00
2024-04-03T08:38:30.006Z,1615.00
2024-04-03T08:39:30.366Z,1600.00
2024-04-03T08:40:29.964Z,1596.00
2024-04-03T08:41:29.962Z,1592.00
2024-04-03T08:42:29.949Z,1571.00
2024-04-03T08:43:30.237Z,1560.00
2024-04-03T08:44:29.903Z,1555.00
2024-04-03T08:45:29.875Z,1556.00
2024-04-03T08:46:30.866Z,1551.00
2024-04-03T08:47:29.917Z,1537.00
2024-04-03T08:48:29.906Z,1543.00
2024-04-03T08:49:29.917Z,1547.00
2024-04-03T08:50:29.939Z,1552.00
2024-04-03T08:51:29.938Z,1536.00
2024-04-03T08:52:29.960Z,1532.00
2024-04-03T08:53:30.004Z,1529.00
2024-04-03T08:54:30.833Z,1505.00
2024-04-03T08:55:30.011Z,1492.00
2024-04-03T08:56:30.028Z,1479.00
2024-04-03T08:57:30.025Z,1480.00
2024-04-03T08:58:30.049Z,1474.00
2024-04-03T08:59:30.351Z,1466.00
2024-04-03T09:00:38.544Z,1466.00
2024-04-03T09:01:31.026Z,1466.00
2024-04-03T09:02:30.031Z,1464.00
2024-04-03T09:03:30.002Z,1453.00
2024-04-03T09:04:29.978Z,1461.00
2024-04-03T09:05:29.965Z,1455.00
2024-04-03T09:06:29.941Z,1450.00
2024-04-03T09:07:30.008Z,1450.00
2024-04-03T09:08:29.902Z,1447.00
2024-04-03T09:09:29.898Z,1439.00
2024-04-03T09:10:29.850Z,1445.00
2024-04-03T09:11:29.868Z,1447.00
2024-04-03T09:12:29.825Z,1441.00
2024-04-03T09:13:29.811Z,1445.00
2024-04-03T09:14:29.876Z,1447.00
2024-04-03T09:15:29.741Z,1445.00
2024-04-03T09:16:29.712Z,1440.00
2024-04-03T09:17:29.708Z,1441.00
2024-04-03T09:18:29.690Z,1442.00
2024-04-03T09:19:29.884Z,1452.00
2024-04-03T09:20:29.673Z,1456.00
2024-04-03T09:21:29.634Z,1444.00
2024-04-03T09:22:29.680Z,1446.00
2024-04-03T09:23:29.625Z,1438.00
2024-04-03T09:24:29.917Z,1423.00
2024-04-03T09:25:29.615Z,1424.00
2024-04-03T09:26:29.622Z,1422.00
2024-04-03T09:27:29.679Z,1424.00
2024-04-03T09:28:29.617Z,1408.00
2024-04-03T09:29:29.604Z,1388.00
2024-04-03T09:30:29.625Z,1374.00
2024-04-03T09:31:29.621Z,1336.00
2024-04-03T09:32:29.564Z,1332.00
2024-04-03T09:33:29.561Z,1306.00
2024-04-03T09:34:29.901Z,1299.00
2024-04-03T09:35:29.536Z,1257.00
2024-04-03T09:36:29.564Z,1249.00
2024-04-03T09:37:29.529Z,1238.00
2024-04-03T09:38:29.513Z,1247.00
2024-04-03T09:39:29.580Z,1257.00
2024-04-03T09:40:29.512Z,1272.00
2024-04-03T09:41:29.552Z,1291.00
2024-04-03T09:42:29.503Z,1312.00
2024-04-03T09:43:29.504Z,1307.00
2024-04-03T09:44:29.899Z,1320.00
2024-04-03T09:45:29.509Z,1315.00
2024-04-03T09:46:29.537Z,1300.00
2024-04-03T09:47:29.563Z,1283.00
2024-04-03T09:48:29.507Z,1260.00
2024-04-03T09:49:29.888Z,1252.00
2024-04-03T09:50:29.517Z,1252.00
2024-04-03T09:51:29.555Z,1255.00
2024-04-03T09:52:29.529Z,1262.00
2024-04-03T09:53:29.516Z,1254.00
2024-04-03T09:54:29.877Z,1251.00
2024-04-03T09:55:29.522Z,1249.00
2024-04-03T09:56:29.552Z,1260.00
2024-04-03T09:57:29.553Z,1252.00
2024-04-03T09:58:29.541Z,1236.00
2024-04-03T09:59:29.580Z,1244.00
2024-04-03T10:00:29.635Z,1241.00
2024-04-03T10:01:29.603Z,1237.00
2024-04-03T10:02:29.619Z,1243.00
2024-04-03T10:03:29.661Z,1235.00
2024-04-03T10:04:29.624Z,1236.00
2024-04-03T10:05:29.628Z,1240.00
2024-04-03T10:06:29.674Z,1249.00
2024-04-03T10:07:29.675Z,1249.00
2024-04-03T10:08:29.687Z,1249.00
2024-04-03T10:09:29.737Z,1246.00
2024-04-03T10:10:29.726Z,1256.00
2024-04-03T10:11:29.735Z,1257.00
2024-04-03T10:12:29.783Z,1250.00
2024-04-03T10:13:29.815Z,1253.00
2024-04-03T10:14:29.796Z,1247.00
2024-04-03T10:15:29.859Z,1233.00
2024-04-03T10:16:29.841Z,1236.00
2024-04-03T10:17:29.870Z,1231.00
2024-04-03T10:18:29.903Z,1235.00
2024-04-03T10:19:30.397Z,1227.00
2024-04-03T10:20:29.931Z,1239.00
2024-04-03T10:21:29.956Z,1220.00
2024-04-03T10:22:29.981Z,1220.00
2024-04-03T10:23:29.992Z,1208.00
2024-04-03T10:24:30.061Z,1199.00
2024-04-03T10:25:30.030Z,1207.00
2024-04-03T10:26:33.127Z,1198.00
2024-04-03T10:27:31.068Z,1198.00
2024-04-03T10:28:30.031Z,1198.00
2024-04-03T10:29:30.406Z,1188.00
2024-04-03T10:30:29.988Z,1200.00
2024-04-03T10:31:29.982Z,1192.00
2024-04-03T10:32:29.965Z,1190.00
2024-04-03T10:33:30.022Z,1192.00
2024-04-03T10:34:29.934Z,1181.00
2024-04-03T10:35:29.895Z,1179.00
2024-04-03T10:36:29.914Z,1184.00
2024-04-03T10:37:29.866Z,1181.00
2024-04-03T10:38:29.871Z,1167.00
2024-04-03T10:39:29.900Z,1166.00
2024-04-03T10:40:32.788Z,1149.00
2024-04-03T10:41:32.471Z,1125.00
2024-04-03T10:42:29.877Z,1115.00
2024-04-03T10:43:29.843Z,1103.00
2024-04-03T10:44:29.817Z,1106.00
2024-04-03T10:45:29.806Z,1097.00
2024-04-03T10:46:29.820Z,1110.00
2024-04-03T10:47:29.794Z,1088.00
2024-04-03T10:48:29.758Z,1096.00
2024-04-03T10:49:29.753Z,1081.00
2024-04-03T10:50:30.779Z,1088.00
2024-04-03T10:51:29.701Z,1083.00
2024-04-03T10:52:29.712Z,1089.00
2024-04-03T10:53:29.728Z,1071.00
2024-04-03T10:54:29.946Z,1079.00
2024-04-03T10:55:29.662Z,1083.00
2024-04-03T10:56:30.283Z,1070.00
2024-04-03T10:57:29.686Z,1089.00
2024-04-03T10:58:29.643Z,1077.00
2024-04-03T10:59:29.907Z,1056.00
2024-04-03T11:00:29.676Z,1049.00
2024-04-03T11:01:29.587Z,1046.00
2024-04-03T11:02:30.303Z,1031.00
2024-04-03T11:03:29.657Z,1028.00
2024-04-03T11:04:29.634Z,1019.00
2024-04-03T11:05:29.672Z,1022.00
2024-04-03T11:06:29.736Z,1008.00
2024-04-03T11:07:29.707Z,1024.00
2024-04-03T11:08:30.697Z,1019.00
2024-04-03T11:09:29.978Z,1013.00
2024-04-03T11:10:29.835Z,991.00
2024-04-03T11:11:29.833Z,983.00
2024-04-03T11:12:29.868Z,970.00
2024-04-03T11:13:29.875Z,962.00
2024-04-03T11:14:31.559Z,956.00
2024-04-03T11:15:29.956Z,962.00
2024-04-03T11:16:29.956Z,943.00
2024-04-03T11:17:30.002Z,953.00
2024-04-03T11:18:30.055Z,966.00
2024-04-03T11:19:30.038Z,968.00
2024-04-03T11:20:31.453Z,1002.00
2024-04-03T11:21:30.105Z,1011.00
2024-04-03T11:22:30.116Z,1026.00
2024-04-03T11:23:30.144Z,1017.00
2024-04-03T11:24:30.207Z,1019.00
2024-04-03T11:25:30.192Z,991.00
2024-04-03T11:26:30.224Z,978.00
2024-04-03T11:27:30.286Z,968.00
2024-04-03T11:28:30.266Z,961.00
2024-04-03T11:29:30.341Z,941.00
2024-04-03T11:30:30.374Z,945.00
2024-04-03T11:31:30.409Z,924.00
2024-04-03T11:32:31.951Z,925.00
2024-04-03T11:33:30.517Z,921.00
2024-04-03T11:34:30.911Z,936.00
2024-04-03T11:35:30.523Z,922.00
2024-04-03T11:36:30.628Z,933.00
2024-04-03T11:37:30.615Z,946.00
2024-04-03T11:38:31.615Z,948.00
2024-04-03T11:39:31.061Z,951.00
2024-04-03T11:40:30.714Z,984.00
2024-04-03T11:41:30.727Z,1006.00
2024-04-03T11:42:30.806Z,1002.00
2024-04-03T11:43:30.774Z,1014.00
2024-04-03T11:44:32.314Z,1031.00
2024-04-03T11:45:30.779Z,1059.00
2024-04-03T11:46:30.729Z,1069.00
2024-04-03T11:47:30.738Z,1060.00
2024-04-03T11:48:30.748Z,1063.00
2024-04-03T11:49:30.928Z,1063.00
2024-04-03T11:50:30.681Z,1051.00
2024-04-03T11:51:31.480Z,1074.00
2024-04-03T11:52:30.613Z,1103.00
2024-04-03T11:53:30.575Z,1100.00
2024-04-03T11:54:30.992Z,1094.00
2024-04-03T11:55:30.536Z,1086.00
2024-04-03T11:56:30.518Z,1083.00
2024-04-03T11:57:30.553Z,1105.00
2024-04-03T11:58:30.491Z,1082.00
2024-04-03T11:59:30.943Z,1082.00
2024-04-03T12:00:30.487Z,1074.00
2024-04-03T12:01:30.393Z,1089.00
2024-04-03T12:02:30.388Z,1075.00
2024-04-03T12:03:30.520Z,1058.00
2024-04-03T12:04:30.426Z,1037.00
2024-04-03T12:05:30.342Z,1019.00
2024-04-03T12:06:30.329Z,1013.00
2024-04-03T12:07:30.266Z,1021.00
2024-04-03T12:08:30.247Z,1030.00
2024-04-03T12:09:30.489Z,1045.00
2024-04-03T12:10:30.174Z,1039.00
2024-04-03T12:11:30.174Z,1017.00
2024-04-03T12:12:30.214Z,1008.00
2024-04-03T12:13:30.131Z,1004.00
2024-04-03T12:14:30.430Z,1011.00
2024-04-03T12:15:30.193Z,1003.00
2024-04-03T12:16:30.189Z,1013.00
2024-04-03T12:17:30.216Z,1024.00
2024-04-03T12:18:30.224Z,1016.00